Time;durP1;ratioP1;P1;durP2;ratioP2;P2;SDS_P1;SDS_P2;PMS_P1;PMS_P2;Temp;Humidity;BMP_temperature;BMP_pressure;BME280_temperature;BME280_humidity;BME280_pressure;Samples;Min_cycle;Max_cycle;Signal;HPM_P1;HPM_P2
2024/02/14 00:00:36;;;;;;;8.13;4.10;;;;;;;;;;5029184;28;59281;-74
2024/02/14 00:03:01;;;;;;;6.55;3.67;;;;;;;;;;5017958;28;57924;-74
2024/02/14 00:05:28;;;;;;;8.38;4.03;;;;;;;;;;5018351;28;57858;-74
2024/02/14 00:07:53;;;;;;;8.02;3.70;;;;;;;;;;5022501;28;59156;-74
2024/02/14 00:10:19;;;;;;;9.65;4.25;;;;;;;;;;5024899;28;59723;-74
2024/02/14 00:12:44;;;;;;;5.43;2.92;;;;;;;;;;5015820;28;58677;-74
2024/02/14 00:15:09;;;;;;;7.63;3.38;;;;;;;;;;5017426;28;58845;-74
2024/02/14 00:17:35;;;;;;;7.23;3.47;;;;;;;;;;5022742;28;58061;-74
2024/02/14 00:20:00;;;;;;;8.00;4.05;;;;;;;;;;5028355;28;58097;-74
2024/02/14 00:22:26;;;;;;;7.55;4.07;;;;;;;;;;5021403;28;59872;-74
2024/02/14 00:24:51;;;;;;;8.00;3.63;;;;;;;;;;5016180;28;57936;-74
2024/02/14 00:27:17;;;;;;;7.80;3.47;;;;;;;;;;5026608;28;58845;-74
2024/02/14 00:29:44;;;;;;;6.50;2.95;;;;;;;;;;5016753;28;58000;-74
2024/02/14 00:32:10;;;;;;;5.93;3.25;;;;;;;;;;5022085;28;57864;-74
2024/02/14 00:34:35;;;;;;;8.13;4.23;;;;;;;;;;5020796;28;58973;-74
2024/02/14 00:37:00;;;;;;;5.70;3.08;;;;;;;;;;5016146;28;58025;-74
2024/02/14 00:39:25;;;;;;;7.03;3.80;;;;;;;;;;5028523;28;58328;-74
2024/02/14 00:41:52;;;;;;;5.23;3.80;;;;;;;;;;5024139;28;58666;-74
2024/02/14 00:44:18;;;;;;;5.93;3.40;;;;;;;;;;5028036;28;58148;-74
2024/02/14 00:46:43;;;;;;;7.85;4.13;;;;;;;;;;5023792;28;58695;-74
2024/02/14 00:49:10;;;;;;;7.63;3.27;;;;;;;;;;5024598;28;59208;-74
2024/02/14 00:51:37;;;;;;;7.43;3.45;;;;;;;;;;5019113;28;57905;-74
2024/02/14 00:54:02;;;;;;;7.53;3.92;;;;;;;;;;5026318;28;58769;-74
2024/02/14 00:56:27;;;;;;;4.73;2.97;;;;;;;;;;5027145;28;58109;-73
2024/02/14 00:58:53;;;;;;;8.10;3.03;;;;;;;;;;5021816;28;57876;-71
2024/02/14 01:01:18;;;;;;;8.67;4.03;;;;;;;;;;5014616;28;58989;-74
2024/02/14 01:03:43;;;;;;;7.07;3.83;;;;;;;;;;5017009;28;58284;-74
2024/02/14 01:06:08;;;;;;;7.27;4.00;;;;;;;;;;5014275;28;58631;-74
2024/02/14 01:08:34;;;;;;;6.17;3.93;;;;;;;;;;5007207;28;57908;-73
2024/02/14 01:10:59;;;;;;;7.10;4.07;;;;;;;;;;5016921;28;58164;-74
2024/02/14 01:13:24;;;;;;;6.13;3.77;;;;;;;;;;5024433;28;58477;-74
2024/02/14 01:15:50;;;;;;;5.45;3.08;;;;;;;;;;5025687;28;58711;-74
2024/02/14 01:18:15;;;;;;;5.38;2.72;;;;;;;;;;5025347;28;59469;-73
2024/02/14 01:20:40;;;;;;;4.95;3.17;;;;;;;;;;5017103;28;58982;-74
2024/02/14 01:23:06;;;;;;;6.97;3.33;;;;;;;;;;5016688;28;58000;-74
2024/02/14 01:25:32;;;;;;;6.45;3.10;;;;;;;;;;5016062;28;58087;-73
2024/02/14 01:27:58;;;;;;;8.02;3.00;;;;;;;;;;5023637;28;59204;-73
2024/02/14 01:30:25;;;;;;;9.77;3.65;;;;;;;;;;5014346;28;57835;-74
2024/02/14 01:32:50;;;;;;;7.22;4.03;;;;;;;;;;5014841;28;59689;-73
2024/02/14 01:35:15;;;;;;;5.23;3.07;;;;;;;;;;5020769;28;58998;-73
2024/02/14 01:37:40;;;;;;;4.47;2.80;;;;;;;;;;5021404;28;57963;-72
2024/02/14 01:40:07;;;;;;;4.90;3.53;;;;;;;;;;5014581;28;59836;-73
2024/02/14 01:42:32;;;;;;;6.55;2.58;;;;;;;;;;5024249;28;57907;-72
2024/02/14 01:44:57;;;;;;;5.20;3.03;;;;;;;;;;5014648;28;59358;-73
2024/02/14 01:47:22;;;;;;;6.07;3.25;;;;;;;;;;5023189;28;58020;-73
2024/02/14 01:49:48;;;;;;;5.13;2.85;;;;;;;;;;5020691;28;58087;-73
2024/02/14 01:52:13;;;;;;;5.80;3.00;;;;;;;;;;5016668;28;59486;-73
2024/02/14 01:54:39;;;;;;;7.10;2.83;;;;;;;;;;5025391;28;58997;-73
2024/02/14 01:57:04;;;;;;;5.88;2.85;;;;;;;;;;5025298;28;58072;-73
2024/02/14 01:59:30;;;;;;;4.38;2.90;;;;;;;;;;5016638;28;58533;-75
2024/02/14 02:01:55;;;;;;;7.63;4.18;;;;;;;;;;5022277;28;58102;-75
2024/02/14 02:04:20;;;;;;;4.17;2.40;;;;;;;;;;5019570;28;58594;-75
2024/02/14 02:06:46;;;;;;;5.88;3.05;;;;;;;;;;5008527;28;58802;-75
2024/02/14 02:09:11;;;;;;;4.23;2.93;;;;;;;;;;5014884;28;57646;-73
2024/02/14 02:11:49;;;;;;;5.03;2.23;;;;;;;;;;5024049;28;59346;-73
2024/02/14 02:14:14;;;;;;;;;;;;;;;;;;5018262;28;58996;-72
2024/02/14 02:16:39;;;;;;;3.80;2.40;;;;;;;;;;5015425;28;58049;-72
2024/02/14 02:19:08;;;;;;;4.90;2.40;;;;;;;;;;5005575;28;60436;-74
2024/02/14 02:21:34;;;;;;;5.88;3.05;;;;;;;;;;5006802;28;58112;-73
2024/02/14 02:24:00;;;;;;;4.03;2.33;;;;;;;;;;5023225;28;58714;-72
2024/02/14 02:26:25;;;;;;;4.28;2.53;;;;;;;;;;5025123;28;59827;-75
2024/02/14 02:28:50;;;;;;;5.10;3.22;;;;;;;;;;5016839;28;58208;-74
2024/02/14 02:31:16;;;;;;;7.07;3.50;;;;;;;;;;5018249;28;58096;-74
2024/02/14 02:33:41;;;;;;;5.03;2.22;;;;;;;;;;5025238;28;57984;-73
2024/02/14 02:36:07;;;;;;;3.17;2.30;;;;;;;;;;5012415;28;57790;-74
2024/02/14 02:38:32;;;;;;;3.08;2.67;;;;;;;;;;5020620;28;58456;-73
2024/02/14 02:40:57;;;;;;;3.97;2.70;;;;;;;;;;5023901;28;58807;-74
2024/02/14 02:43:22;;;;;;;8.97;2.70;;;;;;;;;;5018916;28;58745;-74
2024/02/14 02:45:47;;;;;;;5.23;3.23;;;;;;;;;;5014688;28;59695;-74
2024/02/14 02:48:13;;;;;;;3.47;2.00;;;;;;;;;;5015082;28;58094;-73
2024/02/14 02:50:38;;;;;;;4.13;2.30;;;;;;;;;;5018003;28;58592;-73
2024/02/14 02:53:03;;;;;;;3.47;2.33;;;;;;;;;;5019620;28;58407;-74
2024/02/14 02:55:28;;;;;;;3.92;2.25;;;;;;;;;;5024556;28;57824;-74
2024/02/14 02:57:53;;;;;;;3.47;2.70;;;;;;;;;;5026348;28;58630;-74
2024/02/14 03:00:21;;;;;;;3.33;2.13;;;;;;;;;;5025054;28;57724;-73
2024/02/14 03:02:46;;;;;;;4.37;2.10;;;;;;;;;;5016104;28;58458;-74
2024/02/14 03:05:17;;;;;;;4.97;2.40;;;;;;;;;;5013874;28;58911;-74
2024/02/14 03:07:45;;;;;;;4.72;3.03;;;;;;;;;;5019766;28;57897;-75
2024/02/14 03:10:10;;;;;;;4.53;2.37;;;;;;;;;;5024989;28;58709;-74
2024/02/14 03:12:35;;;;;;;4.55;2.65;;;;;;;;;;5015146;28;58521;-74
2024/02/14 03:15:03;;;;;;;5.03;3.07;;;;;;;;;;5013719;28;58153;-73
2024/02/14 03:17:29;;;;;;;3.58;2.15;;;;;;;;;;5020097;28;58015;-73
2024/02/14 03:19:56;;;;;;;4.22;3.00;;;;;;;;;;5025625;28;57852;-74
2024/02/14 03:22:21;;;;;;;4.50;2.77;;;;;;;;;;5020337;28;57951;-73
2024/02/14 03:24:47;;;;;;;3.50;2.90;;;;;;;;;;5013204;28;59213;-74
2024/02/14 03:27:13;;;;;;;4.72;3.30;;;;;;;;;;5009075;28;58093;-74
2024/02/14 03:29:39;;;;;;;6.22;2.65;;;;;;;;;;5022876;28;58976;-74
2024/02/14 03:32:04;;;;;;;3.92;2.22;;;;;;;;;;5015964;28;59019;-73
2024/02/14 03:34:30;;;;;;;4.55;2.42;;;;;;;;;;5016647;28;57867;-73
2024/02/14 03:36:55;;;;;;;6.13;3.38;;;;;;;;;;5022497;28;58521;-73
2024/02/14 03:39:22;;;;;;;4.63;1.83;;;;;;;;;;5024921;28;58679;-73
2024/02/14 03:41:47;;;;;;;4.22;2.45;;;;;;;;;;5024584;28;58208;-73
2024/02/14 03:44:13;;;;;;;6.53;2.47;;;;;;;;;;5024883;28;58479;-73
2024/02/14 03:46:38;;;;;;;4.25;2.50;;;;;;;;;;5023032;28;57560;-74
2024/02/14 03:49:03;;;;;;;4.80;2.70;;;;;;;;;;5022694;28;58365;-73
2024/02/14 03:51:29;;;;;;;4.80;2.27;;;;;;;;;;5025009;28;59678;-74
2024/02/14 03:53:54;;;;;;;2.08;1.70;;;;;;;;;;5018296;28;58056;-73
2024/02/14 03:56:19;;;;;;;2.67;1.57;;;;;;;;;;5025834;28;59129;-73
2024/02/14 03:58:47;;;;;;;2.30;1.87;;;;;;;;;;5026508;28;58991;-73
2024/02/14 04:01:12;;;;;;;3.25;2.25;;;;;;;;;;5023776;28;58060;-73
2024/02/14 04:03:37;;;;;;;3.30;2.23;;;;;;;;;;5015195;28;58556;-73
2024/02/14 04:06:02;;;;;;;4.03;2.50;;;;;;;;;;5015878;28;58718;-73
2024/02/14 04:08:29;;;;;;;2.80;2.20;;;;;;;;;;5024784;28;58616;-73
2024/02/14 04:10:54;;;;;;;3.20;1.85;;;;;;;;;;5025639;28;58425;-73
2024/02/14 04:13:20;;;;;;;6.50;2.40;;;;;;;;;;5023762;28;57674;-73
2024/02/14 04:15:46;;;;;;;3.38;2.33;;;;;;;;;;5017257;28;58755;-73
2024/02/14 04:18:11;;;;;;;4.00;2.30;;;;;;;;;;5026734;28;59959;-75
2024/02/14 04:20:36;;;;;;;4.20;2.27;;;;;;;;;;5026890;28;58181;-75
2024/02/14 04:23:01;;;;;;;4.43;2.77;;;;;;;;;;5020235;28;59200;-75
2024/02/14 04:25:26;;;;;;;4.57;2.27;;;;;;;;;;5018623;28;59750;-75
2024/02/14 04:27:52;;;;;;;6.80;2.63;;;;;;;;;;5028463;28;57899;-73
2024/02/14 04:30:17;;;;;;;2.70;1.45;;;;;;;;;;5016609;28;58759;-73
2024/02/14 04:32:43;;;;;;;2.80;1.87;;;;;;;;;;5026735;28;57864;-73
2024/02/14 04:35:08;;;;;;;3.65;1.98;;;;;;;;;;5027061;28;58720;-73
2024/02/14 04:37:33;;;;;;;4.37;1.97;;;;;;;;;;5026848;28;58885;-73
2024/02/14 04:39:59;;;;;;;3.77;2.30;;;;;;;;;;5027947;28;58182;-74
2024/02/14 04:42:24;;;;;;;3.30;2.10;;;;;;;;;;5024338;28;58890;-73
2024/02/14 04:44:49;;;;;;;2.50;2.08;;;;;;;;;;5025584;28;59973;-73
2024/02/14 04:47:14;;;;;;;3.75;2.42;;;;;;;;;;5026754;28;58123;-73
2024/02/14 04:49:40;;;;;;;3.60;2.77;;;;;;;;;;5023370;28;58905;-73
2024/02/14 04:52:05;;;;;;;3.25;2.10;;;;;;;;;;5013719;28;58187;-73
2024/02/14 04:54:30;;;;;;;4.33;1.80;;;;;;;;;;5027560;28;57899;-73
2024/02/14 04:56:55;;;;;;;2.27;1.73;;;;;;;;;;5019174;28;57872;-73
2024/02/14 04:59:20;;;;;;;4.23;2.20;;;;;;;;;;5023443;28;58031;-74
2024/02/14 05:01:46;;;;;;;3.20;2.20;;;;;;;;;;5024962;28;58052;-72
2024/02/14 05:04:12;;;;;;;2.87;1.70;;;;;;;;;;5024453;28;59071;-73
2024/02/14 05:06:38;;;;;;;2.25;1.92;;;;;;;;;;5027248;28;58258;-74
2024/02/14 05:09:03;;;;;;;3.60;2.55;;;;;;;;;;5027913;28;58479;-73
2024/02/14 05:11:28;;;;;;;3.35;1.98;;;;;;;;;;5023439;28;58613;-73
2024/02/14 05:13:53;;;;;;;3.13;1.80;;;;;;;;;;5020948;28;58413;-73
2024/02/14 05:16:19;;;;;;;2.40;1.90;;;;;;;;;;5023769;28;58840;-73
2024/02/14 05:18:45;;;;;;;5.90;3.08;;;;;;;;;;5025589;28;57846;-73
2024/02/14 05:21:10;;;;;;;1.90;1.73;;;;;;;;;;5024678;28;59235;-73
2024/02/14 05:23:38;;;;;;;2.10;1.42;;;;;;;;;;5012726;28;59865;-74
2024/02/14 05:26:03;;;;;;;;;;;;;;;;;;5015076;28;58195;-73
2024/02/14 05:28:29;;;;;;;2.60;1.63;;;;;;;;;;5021123;28;58654;-73
2024/02/14 05:30:54;;;;;;;1.83;1.40;;;;;;;;;;5015301;28;58878;-73
2024/02/14 05:33:22;;;;;;;3.22;2.13;;;;;;;;;;5027479;28;58280;-73
2024/02/14 05:35:47;;;;;;;3.23;1.73;;;;;;;;;;5025284;28;59146;-73
2024/02/14 05:38:12;;;;;;;4.00;2.47;;;;;;;;;;5017654;28;58159;-75
2024/02/14 05:40:39;;;;;;;3.17;1.95;;;;;;;;;;5012372;28;58886;-74
2024/02/14 05:43:04;;;;;;;3.88;1.77;;;;;;;;;;5017777;28;59009;-74
2024/02/14 05:45:29;;;;;;;4.43;2.37;;;;;;;;;;5028085;28;58083;-75
2024/02/14 05:47:54;;;;;;;3.78;1.75;;;;;;;;;;5026173;27;58731;-75
2024/02/14 05:50:20;;;;;;;2.72;1.92;;;;;;;;;;5025621;28;58760;-79
2024/02/14 05:52:45;;;;;;;5.80;2.83;;;;;;;;;;5017730;28;58002;-79
2024/02/14 05:55:10;;;;;;;6.05;3.03;;;;;;;;;;5006758;28;58897;-74
2024/02/14 05:57:35;;;;;;;5.67;2.53;;;;;;;;;;5007463;28;58166;-75
2024/02/14 06:00:00;;;;;;;11.53;2.57;;;;;;;;;;5022486;28;59691;-77
2024/02/14 06:02:25;;;;;;;5.90;3.43;;;;;;;;;;5017062;28;58638;-75
2024/02/14 06:04:51;;;;;;;5.97;3.00;;;;;;;;;;5014405;28;58064;-76
2024/02/14 06:07:16;;;;;;;7.72;3.97;;;;;;;;;;5014706;28;58548;-77
2024/02/14 06:09:41;;;;;;;6.13;3.42;;;;;;;;;;5015266;28;58067;-75
2024/02/14 06:12:06;;;;;;;6.75;3.25;;;;;;;;;;5023671;28;57771;-76
2024/02/14 06:14:33;;;;;;;10.17;4.10;;;;;;;;;;5024793;27;59287;-76
2024/02/14 06:16:59;;;;;;;14.32;5.07;;;;;;;;;;5025665;28;58228;-76
2024/02/14 06:19:24;;;;;;;10.90;4.90;;;;;;;;;;5022879;28;58345;-76
2024/02/14 06:21:49;;;;;;;9.47;4.13;;;;;;;;;;5017094;28;59276;-76
2024/02/14 06:24:15;;;;;;;11.02;4.88;;;;;;;;;;5015884;28;57953;-76
2024/02/14 06:26:40;;;;;;;11.35;4.43;;;;;;;;;;5006163;28;58847;-76
2024/02/14 06:29:05;;;;;;;10.43;4.23;;;;;;;;;;5005998;28;57635;-76
2024/02/14 06:31:30;;;;;;;13.77;4.70;;;;;;;;;;5008844;28;57859;-75
2024/02/14 06:33:55;;;;;;;10.27;4.95;;;;;;;;;;5013736;28;58615;-76
2024/02/14 06:36:20;;;;;;;17.47;5.43;;;;;;;;;;5025179;28;57949;-76
2024/02/14 06:38:46;;;;;;;8.17;4.27;;;;;;;;;;5026310;28;59396;-73
2024/02/14 06:41:11;;;;;;;12.60;6.30;;;;;;;;;;5025349;28;58927;-73
2024/02/14 06:43:38;;;;;;;11.90;4.87;;;;;;;;;;5024341;28;58075;-73
2024/02/14 06:46:03;;;;;;;11.67;4.50;;;;;;;;;;5026456;28;58747;-73
2024/02/14 06:48:29;;;;;;;12.57;5.47;;;;;;;;;;5024750;28;58631;-72
2024/02/14 06:50:54;;;;;;;10.47;4.67;;;;;;;;;;5025458;28;57853;-72
2024/02/14 06:53:19;;;;;;;17.13;6.38;;;;;;;;;;5017915;28;58274;-73
2024/02/14 06:55:44;;;;;;;15.17;5.30;;;;;;;;;;5019599;28;59036;-73
2024/02/14 06:58:09;;;;;;;9.05;4.40;;;;;;;;;;5025610;28;57998;-73
2024/02/14 07:00:34;;;;;;;12.73;5.75;;;;;;;;;;5025900;28;58762;-73
2024/02/14 07:03:00;;;;;;;11.90;5.80;;;;;;;;;;5014842;28;58172;-73
2024/02/14 07:05:27;;;;;;;19.60;6.63;;;;;;;;;;5014075;28;58594;-73
2024/02/14 07:07:52;;;;;;;14.75;5.22;;;;;;;;;;5017711;28;58203;-73
2024/02/14 07:10:17;;;;;;;12.52;6.15;;;;;;;;;;5027714;28;58485;-73
2024/02/14 07:12:42;;;;;;;12.47;6.13;;;;;;;;;;5024347;28;59364;-73
2024/02/14 07:15:08;;;;;;;10.20;5.53;;;;;;;;;;5013495;28;57870;-73
2024/02/14 07:17:33;;;;;;;12.25;5.90;;;;;;;;;;5023127;28;57737;-72
2024/02/14 07:19:58;;;;;;;12.57;5.27;;;;;;;;;;5023618;28;58524;-73
2024/02/14 07:22:23;;;;;;;15.83;5.90;;;;;;;;;;5022701;28;57869;-73
2024/02/14 07:24:49;;;;;;;18.55;6.88;;;;;;;;;;5017370;28;58284;-73
2024/02/14 07:27:14;;;;;;;13.80;5.93;;;;;;;;;;5027281;28;59658;-73
2024/02/14 07:29:39;;;;;;;18.17;5.70;;;;;;;;;;5028093;28;57916;-73
2024/02/14 07:32:06;;;;;;;13.03;6.47;;;;;;;;;;5020027;28;58628;-73
2024/02/14 07:34:31;;;;;;;16.90;6.90;;;;;;;;;;5019355;28;58961;-71
2024/02/14 07:36:56;;;;;;;11.57;5.83;;;;;;;;;;5028553;28;58139;-72
2024/02/14 07:39:21;;;;;;;12.75;6.40;;;;;;;;;;5018611;28;57867;-73
2024/02/14 07:41:46;;;;;;;15.57;7.32;;;;;;;;;;5026741;28;59242;-72
2024/02/14 07:44:12;;;;;;;18.20;6.83;;;;;;;;;;5019414;28;59503;-73
2024/02/14 07:46:37;;;;;;;14.83;5.90;;;;;;;;;;5014077;28;59942;-72
2024/02/14 07:49:04;;;;;;;16.17;6.28;;;;;;;;;;5020697;28;57818;-75
2024/02/14 07:51:30;;;;;;;15.93;5.90;;;;;;;;;;5017732;28;58553;-76
2024/02/14 07:53:55;;;;;;;14.70;6.38;;;;;;;;;;5017000;28;58198;-76
2024/02/14 07:56:20;;;;;;;13.37;6.70;;;;;;;;;;5023635;28;58154;-76
2024/02/14 07:58:45;;;;;;;13.87;6.67;;;;;;;;;;5025785;28;58157;-73
2024/02/14 08:01:11;;;;;;;12.10;6.80;;;;;;;;;;5023501;28;59583;-73
2024/02/14 08:03:36;;;;;;;14.52;6.28;;;;;;;;;;5017226;28;57906;-72
2024/02/14 08:06:01;;;;;;;18.42;7.45;;;;;;;;;;5024290;28;59115;-73
2024/02/14 08:08:29;;;;;;;13.55;5.82;;;;;;;;;;5026273;28;58118;-73
2024/02/14 08:10:54;;;;;;;;;;;;;;;;;;5025591;28;57936;-72
2024/02/14 08:13:20;;;;;;;12.77;6.07;;;;;;;;;;5023744;28;57951;-73
2024/02/14 08:15:45;;;;;;;15.07;7.47;;;;;;;;;;5015673;28;57829;-73
2024/02/14 08:18:12;;;;;;;10.25;5.95;;;;;;;;;;5016588;28;58411;-73
2024/02/14 08:20:37;;;;;;;16.58;7.28;;;;;;;;;;5024611;28;58865;-72
2024/02/14 08:23:02;;;;;;;11.83;5.67;;;;;;;;;;5020700;28;58198;-72
2024/02/14 08:25:28;;;;;;;13.00;7.00;;;;;;;;;;5017038;28;59167;-72
2024/02/14 08:27:53;;;;;;;18.15;7.75;;;;;;;;;;5027294;28;57804;-72
2024/02/14 08:30:19;;;;;;;13.48;6.53;;;;;;;;;;5029076;28;58435;-72
2024/02/14 08:32:44;;;;;;;13.63;6.53;;;;;;;;;;5016390;28;60093;-73
2024/02/14 08:35:09;;;;;;;14.50;5.67;;;;;;;;;;5021371;28;57834;-72
2024/02/14 08:37:36;;;;;;;15.30;6.97;;;;;;;;;;5026148;28;58085;-73
2024/02/14 08:40:02;;;;;;;13.20;6.50;;;;;;;;;;5028503;28;58875;-73
2024/02/14 08:42:27;;;;;;;15.03;6.07;;;;;;;;;;5029370;28;57835;-73
2024/02/14 08:44:52;;;;;;;17.73;6.50;;;;;;;;;;5026751;28;59287;-73
2024/02/14 08:47:17;;;;;;;11.00;5.65;;;;;;;;;;5017666;28;58025;-73
2024/02/14 08:49:42;;;;;;;13.10;6.47;;;;;;;;;;5018565;28;57840;-73
2024/02/14 08:52:08;;;;;;;14.20;6.23;;;;;;;;;;5024061;28;57999;-72
2024/02/14 08:54:33;;;;;;;12.38;5.50;;;;;;;;;;5013946;28;57850;-73
2024/02/14 08:56:59;;;;;;;13.77;7.55;;;;;;;;;;5026342;28;58288;-72
2024/02/14 08:59:24;;;;;;;17.17;5.72;;;;;;;;;;5012648;28;58858;-71
2024/02/14 09:01:49;;;;;;;8.30;4.90;;;;;;;;;;5014813;28;58060;-72
2024/02/14 09:04:15;;;;;;;10.70;4.90;;;;;;;;;;5028050;28;58402;-72
2024/02/14 09:06:40;;;;;;;9.23;4.57;;;;;;;;;;5027029;28;58914;-72
2024/02/14 09:09:06;;;;;;;14.15;5.53;;;;;;;;;;5018209;28;59310;-72
2024/02/14 09:11:31;;;;;;;13.52;7.22;;;;;;;;;;5023073;28;58367;-72
2024/02/14 09:14:02;;;;;;;12.07;6.20;;;;;;;;;;5021184;28;58200;-72
2024/02/14 09:16:27;;;;;;;12.02;5.88;;;;;;;;;;5015870;28;58513;-71
2024/02/14 09:18:52;;;;;;;10.18;5.20;;;;;;;;;;5016012;28;57924;-72
2024/02/14 09:21:19;;;;;;;13.13;5.40;;;;;;;;;;5028731;28;57721;-72
2024/02/14 09:23:45;;;;;;;11.88;5.40;;;;;;;;;;5017539;28;58657;-73
2024/02/14 09:26:10;;;;;;;13.60;5.93;;;;;;;;;;5022821;28;59337;-72
2024/02/14 09:28:36;;;;;;;11.80;5.60;;;;;;;;;;5028558;28;57977;-72
2024/02/14 09:31:04;;;;;;;11.63;6.28;;;;;;;;;;5026537;27;58434;-72
2024/02/14 09:33:29;;;;;;;13.45;4.90;;;;;;;;;;5029366;28;58130;-73
2024/02/14 09:35:55;;;;;;;11.88;6.05;;;;;;;;;;5017427;28;58638;-72
2024/02/14 09:38:20;;;;;;;13.82;5.55;;;;;;;;;;5013001;28;57842;-72
2024/02/14 09:40:45;;;;;;;15.00;6.20;;;;;;;;;;5016388;28;58084;-73
2024/02/14 09:43:17;;;;;;;11.83;6.63;;;;;;;;;;5013424;28;58864;-72
2024/02/14 09:45:43;;;;;;;12.93;5.95;;;;;;;;;;5014511;28;60039;-73
2024/02/14 09:48:09;;;;;;;8.63;5.03;;;;;;;;;;5013421;28;57990;-72
2024/02/14 09:50:34;;;;;;;13.18;6.38;;;;;;;;;;5015224;28;58548;-72
2024/02/14 09:53:00;;;;;;;9.35;5.80;;;;;;;;;;5017104;28;57838;-72
2024/02/14 09:55:26;;;;;;;10.88;4.38;;;;;;;;;;5017715;28;57753;-72
2024/02/14 09:57:52;;;;;;;10.82;6.03;;;;;;;;;;5022203;28;60159;-72
2024/02/14 10:00:18;;;;;;;9.30;5.18;;;;;;;;;;5017771;28;57990;-72
2024/02/14 10:02:43;;;;;;;9.55;4.45;;;;;;;;;;5022831;28;58027;-73
2024/02/14 10:05:08;;;;;;;9.87;4.80;;;;;;;;;;5018382;28;58579;-73
2024/02/14 10:07:40;;;;;;;10.47;4.80;;;;;;;;;;5012366;28;58229;-73
2024/02/14 10:10:05;;;;;;;9.25;4.85;;;;;;;;;;5016488;28;58836;-75
2024/02/14 10:12:30;;;;;;;9.30;4.93;;;;;;;;;;5014689;28;58255;-75
2024/02/14 10:14:56;;;;;;;10.80;5.13;;;;;;;;;;5016003;28;58345;-75
2024/02/14 10:17:21;;;;;;;11.27;5.03;;;;;;;;;;5019608;28;57833;-75
2024/02/14 10:20:05;;;;;;;8.13;3.97;;;;;;;;;;5021701;28;58087;-75
2024/02/14 10:22:36;;;;;;;9.65;4.50;;;;;;;;;;5020548;28;58581;-75
2024/02/14 10:25:03;;;;;;;8.88;4.85;;;;;;;;;;5023879;28;57948;-75
2024/02/14 10:27:29;;;;;;;8.98;5.15;;;;;;;;;;5023067;28;57943;-75
2024/02/14 10:29:56;;;;;;;10.13;5.00;;;;;;;;;;5015400;28;58391;-75
2024/02/14 10:32:22;;;;;;;7.20;3.85;;;;;;;;;;5019756;28;59942;-74
2024/02/14 10:34:47;;;;;;;8.30;4.20;;;;;;;;;;5020839;28;58568;-75
2024/02/14 10:37:13;;;;;;;8.18;4.65;;;;;;;;;;5013721;28;59587;-75
2024/02/14 10:39:41;;;;;;;8.27;5.30;;;;;;;;;;5013022;28;58071;-76
2024/02/14 10:42:06;;;;;;;9.85;4.78;;;;;;;;;;5012959;28;58480;-75
2024/02/14 10:44:31;;;;;;;9.00;5.13;;;;;;;;;;5010722;28;58922;-75
2024/02/14 10:46:58;;;;;;;9.05;4.82;;;;;;;;;;5015270;28;57810;-75
2024/02/14 10:49:26;;;;;;;8.30;4.35;;;;;;;;;;5018115;28;59237;-76
2024/02/14 10:51:51;;;;;;;;;;;;;;;;;;5025011;28;58058;-75
2024/02/14 10:54:17;;;;;;;8.90;4.40;;;;;;;;;;5015436;28;57793;-75
2024/02/14 10:56:45;;;;;;;8.60;4.55;;;;;;;;;;5020431;28;58481;-75
2024/02/14 10:59:13;;;;;;;9.57;4.25;;;;;;;;;;5025935;28;57804;-75
2024/02/14 11:01:39;;;;;;;7.73;4.67;;;;;;;;;;5022238;28;59618;-74
2024/02/14 11:04:07;;;;;;;7.10;3.60;;;;;;;;;;5018418;28;58755;-75
2024/02/14 11:06:33;;;;;;;6.40;3.53;;;;;;;;;;5028286;28;57869;-75
2024/02/14 11:09:00;;;;;;;8.50;4.43;;;;;;;;;;5017234;28;59307;-74
2024/02/14 11:11:27;;;;;;;9.10;4.22;;;;;;;;;;5018586;28;58801;-75
2024/02/14 11:13:53;;;;;;;8.05;3.85;;;;;;;;;;5016648;28;58355;-76
2024/02/14 11:16:22;;;;;;;6.95;4.25;;;;;;;;;;5017569;28;58913;-75
2024/02/14 11:18:47;;;;;;;7.70;4.20;;;;;;;;;;5016877;28;58485;-75
2024/02/14 11:21:16;;;;;;;8.60;5.17;;;;;;;;;;5027413;28;58455;-74
2024/02/14 11:23:52;;;;;;;8.15;3.95;;;;;;;;;;5014656;28;59164;-75
2024/02/14 11:26:17;;;;;;;7.70;4.47;;;;;;;;;;5022479;28;58339;-74
2024/02/14 11:28:42;;;;;;;8.00;4.50;;;;;;;;;;5027650;28;59136;-75
2024/02/14 11:31:09;;;;;;;12.85;5.43;;;;;;;;;;5022257;28;59581;-75
2024/02/14 11:33:35;;;;;;;6.67;3.63;;;;;;;;;;5016345;28;58599;-76
2024/02/14 11:36:11;;;;;;;10.33;4.77;;;;;;;;;;5025414;28;60283;-74
2024/02/14 11:38:36;;;;;;;5.90;3.80;;;;;;;;;;5015613;28;59900;-76
2024/02/14 11:41:03;;;;;;;7.55;4.43;;;;;;;;;;5016983;28;59325;-75
2024/02/14 11:43:28;;;;;;;10.10;4.47;;;;;;;;;;5015737;28;59090;-74
2024/02/14 11:45:54;;;;;;;8.05;4.10;;;;;;;;;;5018215;28;58394;-76
2024/02/14 11:48:22;;;;;;;9.23;4.90;;;;;;;;;;5025606;28;58393;-76
2024/02/14 11:50:47;;;;;;;8.55;3.60;;;;;;;;;;5027843;28;59231;-75
2024/02/14 11:53:14;;;;;;;4.40;2.97;;;;;;;;;;5021363;28;58771;-75
2024/02/14 11:55:40;;;;;;;5.15;3.75;;;;;;;;;;5020874;28;59280;-75
2024/02/14 11:58:10;;;;;;;6.68;4.10;;;;;;;;;;5025556;27;59030;-75
2024/02/14 12:00:37;;;;;;;8.60;4.30;;;;;;;;;;5027150;28;58696;-75
2024/02/14 12:03:04;;;;;;;5.93;4.20;;;;;;;;;;5027442;28;58330;-75
2024/02/14 12:05:29;;;;;;;5.57;3.42;;;;;;;;;;5019581;28;58364;-75
2024/02/14 12:07:54;;;;;;;6.63;3.67;;;;;;;;;;5016273;28;59710;-76
2024/02/14 12:10:21;;;;;;;6.90;4.27;;;;;;;;;;5018497;28;58580;-75
2024/02/14 12:12:46;;;;;;;4.65;2.97;;;;;;;;;;5027282;28;58520;-75
2024/02/14 12:15:15;;;;;;;6.03;3.67;;;;;;;;;;5017578;28;59274;-75
2024/02/14 12:17:41;;;;;;;;;;;;;;;;;;5023842;28;58898;-75
2024/02/14 12:20:11;;;;;;;7.88;4.18;;;;;;;;;;5022168;28;58309;-75
2024/02/14 12:22:37;;;;;;;7.63;3.70;;;;;;;;;;5013628;28;58914;-75
2024/02/14 12:25:02;;;;;;;7.47;4.03;;;;;;;;;;5017983;28;58395;-75
2024/02/14 12:27:31;;;;;;;5.10;3.43;;;;;;;;;;5027029;28;60973;-75
2024/02/14 12:29:56;;;;;;;7.38;4.45;;;;;;;;;;5015895;28;58815;-72
2024/02/14 12:32:21;;;;;;;5.47;3.92;;;;;;;;;;5021834;28;58535;-72
2024/02/14 12:34:46;;;;;;;7.18;4.47;;;;;;;;;;5028453;27;58465;-72
2024/02/14 12:37:12;;;;;;;7.55;3.92;;;;;;;;;;5022952;28;58804;-72
2024/02/14 12:39:37;;;;;;;7.33;4.60;;;;;;;;;;5016882;28;58280;-72
2024/02/14 12:42:03;;;;;;;5.47;4.05;;;;;;;;;;5025121;28;59686;-72
2024/02/14 12:44:28;;;;;;;6.93;3.67;;;;;;;;;;5027588;27;58353;-72
2024/02/14 12:46:54;;;;;;;6.07;3.47;;;;;;;;;;5021638;28;59484;-72
2024/02/14 12:49:19;;;;;;;8.43;4.53;;;;;;;;;;5016984;28;59201;-72
2024/02/14 12:51:44;;;;;;;4.77;3.70;;;;;;;;;;5015085;28;58513;-72
2024/02/14 12:54:11;;;;;;;5.90;3.63;;;;;;;;;;5018211;28;60249;-72
2024/02/14 12:56:37;;;;;;;5.07;3.60;;;;;;;;;;5023947;28;59145;-72
2024/02/14 12:59:02;;;;;;;4.93;3.17;;;;;;;;;;5022330;28;58424;-73
2024/02/14 13:01:27;;;;;;;5.23;3.27;;;;;;;;;;5013452;28;59484;-72
2024/02/14 13:03:53;;;;;;;7.50;3.90;;;;;;;;;;5014858;28;59253;-72
2024/02/14 13:06:18;;;;;;;5.03;3.92;;;;;;;;;;5015570;28;59383;-72
2024/02/14 13:08:43;;;;;;;6.25;3.88;;;;;;;;;;5026683;28;59068;-73
2024/02/14 13:11:08;;;;;;;5.80;3.10;;;;;;;;;;5030630;28;58472;-72
2024/02/14 13:13:34;;;;;;;6.93;3.80;;;;;;;;;;5027900;28;59191;-72
2024/02/14 13:15:59;;;;;;;5.88;4.10;;;;;;;;;;5026730;28;59165;-72
2024/02/14 13:18:25;;;;;;;4.47;2.97;;;;;;;;;;5027816;28;58984;-70
2024/02/14 13:20:57;;;;;;;6.57;4.20;;;;;;;;;;5027771;28;60126;-72
2024/02/14 13:23:23;;;;;;;7.65;3.83;;;;;;;;;;5026201;28;59000;-72
2024/02/14 13:25:48;;;;;;;5.85;3.55;;;;;;;;;;5023627;28;58305;-71
2024/02/14 13:28:14;;;;;;;5.60;3.15;;;;;;;;;;5024023;28;58954;-72
2024/02/14 13:30:39;;;;;;;5.15;3.13;;;;;;;;;;5026238;28;58341;-72
2024/02/14 13:33:04;;;;;;;4.70;2.92;;;;;;;;;;5017404;28;60107;-72
2024/02/14 13:35:31;;;;;;;7.97;3.27;;;;;;;;;;5014929;28;59797;-75
2024/02/14 13:37:56;;;;;;;6.97;4.35;;;;;;;;;;5012799;28;58370;-74
2024/02/14 13:40:21;;;;;;;6.17;3.20;;;;;;;;;;5017251;28;60445;-74
2024/02/14 13:42:46;;;;;;;6.60;3.30;;;;;;;;;;5022366;27;58767;-74
2024/02/14 13:45:11;;;;;;;8.48;4.15;;;;;;;;;;5027590;28;58364;-74
2024/02/14 13:47:42;;;;;;;3.83;3.10;;;;;;;;;;5017424;28;60420;-73
2024/02/14 13:50:08;;;;;;;6.53;2.90;;;;;;;;;;5012127;28;58788;-74
2024/02/14 13:52:34;;;;;;;5.63;3.70;;;;;;;;;;5011297;28;58629;-74
2024/02/14 13:54:59;;;;;;;6.95;3.33;;;;;;;;;;5013383;28;58882;-74
2024/02/14 13:57:24;;;;;;;5.95;3.47;;;;;;;;;;5026342;28;58379;-73
2024/02/14 13:59:49;;;;;;;4.87;2.77;;;;;;;;;;5014773;28;59953;-73
2024/02/14 14:02:14;;;;;;;4.40;3.20;;;;;;;;;;5014082;28;58427;-74
2024/02/14 14:04:39;;;;;;;7.17;3.27;;;;;;;;;;5016010;28;58541;-72
2024/02/14 14:07:04;;;;;;;7.80;3.53;;;;;;;;;;5018403;28;60185;-73
2024/02/14 14:09:32;;;;;;;5.90;3.07;;;;;;;;;;5027628;28;58671;-73
2024/02/14 14:11:57;;;;;;;4.95;3.55;;;;;;;;;;5024535;28;59414;-73
2024/02/14 14:14:26;;;;;;;8.27;3.20;;;;;;;;;;5015682;28;58844;-73
2024/02/14 14:16:51;;;;;;;5.07;2.97;;;;;;;;;;5019461;28;58369;-72
2024/02/14 14:19:16;;;;;;;8.20;3.30;;;;;;;;;;5021571;28;59490;-73
2024/02/14 14:21:42;;;;;;;8.27;3.73;;;;;;;;;;5014450;28;59233;-72
2024/02/14 14:24:07;;;;;;;5.00;2.50;;;;;;;;;;5023962;28;58475;-72
2024/02/14 14:26:32;;;;;;;6.00;3.65;;;;;;;;;;5023030;28;59208;-72
2024/02/14 14:28:57;;;;;;;5.07;2.77;;;;;;;;;;5017037;28;58793;-72
2024/02/14 14:31:22;;;;;;;6.90;3.37;;;;;;;;;;5014493;28;59422;-72